Terminal Aerodrome Forecast
Issued by NWS Sioux Falls, SD

Home | Current Version | Previous Version | Text Only | Print | Product List | Glossary On
Versions: 1 2 3 4 5 6 7 8 9 10 11 12
000
FTUS43 KFSD 051135
TAFFSD
TAF
KFSD 051135Z 0512/0612 21004KT P6SM FEW250
     FM051700 20009KT P6SM SKC
     FM060100 19007KT P6SM SKC
     FM060800 20008KT P6SM SKC WS012/22036KT=

USA.gov is the U.S. government's official web portal to all federal, state and local government web resources and services.